createdAt,value
2018-07-16T00:00:25.636Z,99.90
2018-07-16T00:02:55.438Z,99.90
2018-07-16T00:05:24.084Z,99.90
2018-07-16T00:07:52.845Z,99.90
2018-07-16T00:10:21.567Z,99.90
2018-07-16T00:12:50.444Z,99.90
2018-07-16T00:15:19.128Z,99.90
2018-07-16T00:20:16.172Z,99.90
2018-07-16T00:22:44.900Z,99.90
2018-07-16T00:25:13.563Z,99.90
2018-07-16T00:27:42.211Z,99.90
2018-07-16T00:30:11.032Z,99.90
2018-07-16T00:32:39.758Z,99.90
2018-07-16T00:35:09.333Z,99.90
2018-07-16T00:37:38.908Z,99.90
2018-07-16T00:42:35.843Z,99.90
2018-07-16T00:45:04.936Z,99.90
2018-07-16T00:47:33.599Z,99.90
2018-07-16T00:50:02.567Z,99.90
2018-07-16T00:52:31.319Z,99.90
2018-07-16T00:55:00.083Z,99.90
2018-07-16T00:57:28.698Z,99.90
2018-07-16T00:59:57.529Z,99.90
2018-07-16T01:02:26.148Z,99.90
2018-07-16T01:04:55.440Z,99.90
2018-07-16T01:07:24.153Z,99.90
2018-07-16T01:09:53.993Z,99.90
2018-07-16T01:12:22.610Z,99.90
2018-07-16T01:14:51.299Z,99.90
2018-07-16T01:17:19.988Z,99.90
2018-07-16T01:19:48.771Z,99.90
2018-07-16T01:22:17.433Z,99.90
2018-07-16T01:24:46.050Z,99.90
2018-07-16T01:27:14.726Z,99.90
2018-07-16T01:29:43.384Z,99.90
2018-07-16T01:32:12.039Z,99.90
2018-07-16T01:34:40.701Z,99.90
2018-07-16T01:37:09.462Z,99.90
2018-07-16T01:39:38.190Z,99.90
2018-07-16T01:42:07.068Z,99.90
2018-07-16T01:44:35.877Z,99.90
2018-07-16T01:47:04.757Z,99.90
2018-07-16T01:49:34.204Z,99.90
2018-07-16T01:52:03.157Z,99.90
2018-07-16T01:54:32.346Z,99.90
2018-07-16T01:57:01.082Z,99.90
2018-07-16T01:59:29.771Z,99.90
2018-07-16T02:01:58.453Z,99.90
2018-07-16T02:04:27.252Z,99.90
2018-07-16T02:06:56.033Z,99.90
2018-07-16T02:09:24.672Z,99.90
2018-07-16T02:11:53.377Z,99.90
2018-07-16T02:14:22.146Z,99.90
2018-07-16T02:16:50.881Z,99.90
2018-07-16T02:19:19.640Z,99.90
2018-07-16T02:21:48.350Z,99.90
2018-07-16T02:24:17.367Z,99.90
2018-07-16T02:26:46.024Z,99.90
2018-07-16T02:29:14.828Z,99.90
2018-07-16T02:31:43.991Z,99.90
2018-07-16T02:34:13.071Z,99.90
2018-07-16T02:36:41.771Z,99.90
2018-07-16T02:39:10.440Z,99.90
2018-07-16T02:41:39.100Z,99.90
2018-07-16T02:44:08.140Z,99.90
2018-07-16T02:46:36.895Z,99.90
2018-07-16T02:49:05.667Z,99.90
2018-07-16T02:51:34.393Z,99.90
2018-07-16T02:54:03.287Z,99.90
2018-07-16T02:56:32.139Z,99.90
2018-07-16T02:59:00.951Z,99.90
2018-07-16T03:01:29.715Z,99.90
2018-07-16T03:03:58.504Z,99.90
2018-07-16T03:06:27.365Z,99.90
2018-07-16T03:08:56.107Z,99.90
2018-07-16T03:11:24.834Z,99.90
2018-07-16T03:13:53.441Z,99.90
2018-07-16T03:16:22.143Z,99.90
2018-07-16T03:18:50.838Z,99.90
2018-07-16T03:21:19.613Z,99.90
2018-07-16T03:23:48.289Z,99.90
2018-07-16T03:26:17.164Z,99.90
2018-07-16T03:28:45.895Z,99.90
2018-07-16T03:31:14.621Z,99.90
2018-07-16T03:33:43.411Z,99.90
2018-07-16T03:36:12.774Z,99.90
2018-07-16T03:38:41.502Z,99.90
2018-07-16T03:41:10.414Z,99.90
2018-07-16T03:43:39.164Z,99.90
2018-07-16T03:46:07.987Z,99.90
2018-07-16T03:48:36.789Z,99.90
2018-07-16T03:51:05.588Z,99.90
2018-07-16T03:53:34.270Z,99.90
2018-07-16T03:56:03.187Z,99.90
2018-07-16T03:58:31.902Z,99.90
2018-07-16T04:01:00.623Z,99.90
2018-07-16T04:03:29.315Z,99.90
2018-07-16T04:05:58.138Z,99.90
2018-07-16T04:13:23.464Z,99.90
2018-07-16T04:15:52.079Z,99.90
2018-07-16T04:18:21.445Z,99.90
2018-07-16T04:20:51.052Z,99.90
2018-07-16T04:23:20.345Z,99.90
2018-07-16T04:25:49.129Z,99.90
2018-07-16T04:28:17.816Z,99.90
2018-07-16T04:30:46.481Z,99.90
2018-07-16T04:33:15.372Z,99.90
2018-07-16T04:35:44.056Z,99.90
2018-07-16T04:38:12.728Z,99.90
2018-07-16T04:40:41.534Z,99.90
2018-07-16T04:43:10.243Z,99.90
2018-07-16T04:45:38.932Z,99.90
2018-07-16T04:48:07.660Z,99.90
2018-07-16T04:50:36.361Z,99.90
2018-07-16T04:53:05.063Z,99.90
2018-07-16T04:55:33.729Z,99.90
2018-07-16T04:58:02.388Z,99.90
2018-07-16T05:00:31.041Z,99.90
2018-07-16T05:02:59.920Z,99.90
2018-07-16T05:05:28.666Z,99.90
2018-07-16T05:07:57.441Z,99.90
2018-07-16T05:10:26.273Z,99.90
2018-07-16T05:12:55.133Z,99.90
2018-07-16T05:15:24.150Z,99.90
2018-07-16T05:17:52.898Z,99.90
2018-07-16T05:20:21.816Z,99.90
2018-07-16T05:22:50.729Z,99.90
2018-07-16T05:25:20.244Z,99.40
2018-07-16T05:27:56.527Z,99.30
2018-07-16T05:30:25.525Z,98.40
2018-07-16T05:32:54.282Z,98.00
2018-07-16T05:35:23.055Z,98.00
2018-07-16T05:37:51.711Z,97.20
2018-07-16T05:40:20.675Z,96.50
2018-07-16T05:42:49.344Z,95.70
2018-07-16T05:45:18.007Z,94.60
2018-07-16T05:47:46.766Z,94.80
2018-07-16T05:50:15.467Z,94.60
2018-07-16T05:52:44.110Z,93.30
2018-07-16T05:55:13.058Z,93.30
2018-07-16T05:57:41.749Z,92.90
2018-07-16T06:00:10.470Z,92.10
2018-07-16T06:02:39.189Z,91.90
2018-07-16T06:05:07.956Z,92.10
2018-07-16T06:07:36.700Z,91.80
2018-07-16T06:10:06.316Z,92.40
2018-07-16T06:12:35.006Z,92.10
2018-07-16T06:15:03.961Z,91.00
2018-07-16T06:17:32.813Z,90.60
2018-07-16T06:20:01.565Z,90.10
2018-07-16T06:22:30.518Z,88.80
2018-07-16T06:24:59.356Z,88.30
2018-07-16T06:27:28.049Z,87.70
2018-07-16T06:29:56.825Z,86.70
2018-07-16T06:32:25.853Z,84.30
2018-07-16T06:34:54.498Z,83.10
2018-07-16T06:37:23.160Z,84.20
2018-07-16T06:39:52.510Z,83.00
2018-07-16T06:42:21.480Z,82.80
2018-07-16T06:44:50.164Z,83.00
2018-07-16T06:49:47.179Z,81.10
2018-07-16T06:52:15.921Z,80.70
2018-07-16T06:54:44.694Z,80.70
2018-07-16T06:57:13.380Z,80.80
2018-07-16T07:02:10.411Z,85.40
2018-07-16T07:04:39.112Z,87.20
2018-07-16T07:07:07.769Z,90.10
2018-07-16T07:09:36.642Z,91.50
2018-07-16T07:12:05.401Z,92.20
2018-07-16T07:17:02.369Z,93.40
2018-07-16T07:19:31.060Z,94.20
2018-07-16T07:21:59.797Z,94.90
2018-07-16T07:26:57.445Z,94.80
2018-07-16T07:29:26.142Z,95.00
2018-07-16T07:31:54.780Z,95.50
2018-07-16T07:34:23.512Z,94.60
2018-07-16T07:36:52.348Z,95.10
2018-07-16T07:39:21.099Z,94.80
2018-07-16T07:41:50.000Z,95.10
2018-07-16T07:44:18.616Z,94.80
2018-07-16T07:46:47.281Z,94.60
2018-07-16T07:49:16.231Z,94.30
2018-07-16T07:51:44.944Z,94.80
2018-07-16T07:54:13.755Z,94.90
2018-07-16T07:56:43.296Z,94.90
2018-07-16T07:59:12.166Z,94.30
2018-07-16T08:01:41.080Z,94.90
2018-07-16T08:04:09.922Z,94.30
2018-07-16T08:06:38.648Z,94.10
2018-07-16T08:09:08.062Z,94.40
2018-07-16T08:11:36.844Z,94.20
2018-07-16T08:14:05.730Z,93.80
2018-07-16T08:16:35.568Z,93.80
2018-07-16T08:19:04.360Z,93.90
2018-07-16T08:21:33.337Z,93.10
2018-07-16T08:24:02.187Z,92.00
2018-07-16T08:26:30.974Z,92.30
2018-07-16T08:28:59.756Z,92.60
2018-07-16T08:31:28.582Z,92.20
2018-07-16T08:33:57.379Z,92.40
2018-07-16T08:36:26.233Z,92.70
2018-07-16T08:38:55.006Z,93.30
2018-07-16T08:41:23.840Z,92.70
2018-07-16T08:43:52.567Z,92.70
2018-07-16T08:46:21.475Z,92.40
2018-07-16T08:48:50.238Z,91.50
2018-07-16T08:51:18.959Z,91.70
2018-07-16T08:53:47.706Z,91.90
2018-07-16T08:56:16.522Z,91.90
2018-07-16T08:58:45.467Z,91.40
2018-07-16T09:01:14.384Z,91.90
2018-07-16T09:03:43.270Z,91.00
2018-07-16T09:06:11.993Z,90.80
2018-07-16T09:08:40.882Z,90.40
2018-07-16T09:11:09.774Z,90.40
2018-07-16T09:13:39.845Z,88.80
2018-07-16T09:16:08.512Z,90.00
2018-07-16T09:18:37.377Z,89.70
2018-07-16T09:21:06.136Z,88.20
2018-07-16T09:23:35.096Z,87.10
2018-07-16T09:26:03.904Z,87.70
2018-07-16T09:28:32.693Z,88.60
2018-07-16T09:31:01.579Z,89.00
2018-07-16T09:33:30.429Z,88.10
2018-07-16T09:35:59.317Z,85.00
2018-07-16T09:38:29.225Z,86.70
2018-07-16T09:40:58.010Z,85.90
2018-07-16T09:43:26.963Z,84.80
2018-07-16T09:45:55.882Z,85.40
2018-07-16T09:48:24.656Z,84.40
2018-07-16T09:50:53.444Z,85.00
2018-07-16T09:53:22.753Z,85.50
2018-07-16T09:55:51.428Z,85.90
2018-07-16T09:58:20.450Z,85.70
2018-07-16T10:00:54.558Z,83.30
2018-07-16T10:03:23.342Z,82.10
2018-07-16T10:05:52.109Z,82.30
2018-07-16T10:08:20.979Z,81.70
2018-07-16T10:10:50.100Z,79.60
2018-07-16T10:13:18.880Z,77.40
2018-07-16T10:15:47.722Z,76.00
2018-07-16T10:18:16.446Z,76.40
2018-07-16T10:20:45.319Z,76.90
2018-07-16T10:23:14.048Z,76.10
2018-07-16T10:25:42.955Z,77.10
2018-07-16T10:28:11.659Z,77.40
2018-07-16T10:30:40.494Z,75.00
2018-07-16T10:33:09.293Z,73.90
2018-07-16T10:35:38.032Z,74.90
2018-07-16T10:38:07.140Z,74.60
2018-07-16T10:43:04.552Z,76.10
2018-07-16T10:45:33.454Z,76.10
2018-07-16T10:48:02.231Z,76.00
2018-07-16T10:50:30.997Z,75.60
2018-07-16T10:52:59.738Z,74.80
2018-07-16T10:55:29.786Z,75.80
2018-07-16T10:57:58.606Z,74.80
2018-07-16T11:00:28.095Z,74.90
2018-07-16T11:02:57.053Z,74.00
2018-07-16T11:05:26.643Z,72.30
2018-07-16T11:07:55.814Z,71.10
2018-07-16T11:10:24.664Z,68.80
2018-07-16T11:12:53.532Z,67.90
2018-07-16T11:15:22.464Z,71.40
2018-07-16T11:17:51.182Z,71.60
2018-07-16T11:20:19.889Z,73.30
2018-07-16T11:22:50.034Z,75.00
2018-07-16T11:25:18.747Z,75.50
2018-07-16T11:27:48.289Z,73.40
2018-07-16T11:30:17.049Z,72.70
2018-07-16T11:32:45.793Z,71.90
2018-07-16T11:35:14.833Z,73.50
2018-07-16T11:37:43.503Z,71.90
2018-07-16T11:40:12.258Z,73.00
2018-07-16T11:42:41.075Z,72.00
2018-07-16T11:45:09.863Z,71.40
2018-07-16T11:47:38.857Z,71.50
2018-07-16T11:50:07.762Z,71.30
2018-07-16T11:52:36.523Z,69.50
2018-07-16T11:55:05.223Z,69.80
2018-07-16T11:57:33.886Z,69.20
2018-07-16T12:00:04.595Z,69.00
2018-07-16T12:02:33.450Z,68.00
2018-07-16T12:05:03.603Z,67.70
2018-07-16T12:07:32.362Z,67.50
2018-07-16T12:10:01.114Z,68.50
2018-07-16T12:12:30.112Z,66.60
2018-07-16T12:14:58.814Z,65.10
2018-07-16T12:17:27.674Z,66.70
2018-07-16T12:19:56.392Z,68.50
2018-07-16T12:22:25.254Z,70.10
2018-07-16T12:24:55.058Z,69.00
2018-07-16T12:27:24.075Z,68.20
2018-07-16T12:29:53.315Z,67.20
2018-07-16T12:32:21.960Z,67.90
2018-07-16T12:34:50.798Z,68.50
2018-07-16T12:37:19.637Z,68.50
2018-07-16T12:39:48.534Z,68.00
2018-07-16T12:42:17.440Z,66.80
2018-07-16T12:44:46.107Z,67.00
2018-07-16T12:47:14.874Z,64.40
2018-07-16T12:49:43.772Z,67.00
2018-07-16T12:52:12.502Z,66.60
2018-07-16T12:54:41.389Z,67.60
2018-07-16T12:57:10.409Z,64.40
2018-07-16T12:59:39.153Z,66.40
2018-07-16T13:02:08.281Z,65.60
2018-07-16T13:04:37.423Z,66.20
2018-07-16T13:07:06.464Z,66.90
2018-07-16T13:09:35.209Z,66.60
2018-07-16T13:12:03.948Z,66.50
2018-07-16T13:14:32.673Z,65.70
2018-07-16T13:17:01.576Z,66.40
2018-07-16T13:19:30.308Z,66.00
2018-07-16T13:21:59.124Z,66.30
2018-07-16T13:24:27.825Z,67.10
2018-07-16T13:26:59.893Z,66.00
2018-07-16T13:29:28.605Z,67.90
2018-07-16T13:31:57.803Z,67.30
2018-07-16T13:34:26.620Z,68.60
2018-07-16T13:36:55.512Z,69.90
2018-07-16T13:39:24.170Z,68.70
2018-07-16T13:41:52.900Z,68.80
2018-07-16T13:44:22.037Z,68.00
2018-07-16T13:46:51.020Z,66.90
2018-07-16T13:49:19.788Z,67.70
2018-07-16T13:51:48.518Z,67.00
2018-07-16T13:54:17.226Z,66.30
2018-07-16T13:56:46.089Z,64.70
2018-07-16T13:59:14.788Z,67.40
2018-07-16T14:01:44.364Z,67.60
2018-07-16T14:04:13.026Z,67.00
2018-07-16T14:06:41.757Z,67.00
2018-07-16T14:09:11.178Z,66.40
2018-07-16T14:11:40.019Z,66.50
2018-07-16T14:14:08.699Z,66.30
2018-07-16T14:16:37.847Z,66.40
2018-07-16T14:19:06.629Z,65.50
2018-07-16T14:21:35.806Z,65.20
2018-07-16T14:24:04.616Z,64.90
2018-07-16T14:26:33.223Z,63.90
2018-07-16T14:29:02.582Z,64.00
2018-07-16T14:31:31.544Z,64.10
2018-07-16T14:34:00.235Z,63.70
2018-07-16T14:36:29.112Z,62.50
2018-07-16T14:38:57.859Z,62.50
2018-07-16T14:41:26.661Z,63.50
2018-07-16T14:43:55.564Z,64.00
2018-07-16T14:46:24.289Z,63.70
2018-07-16T14:48:53.054Z,62.50
2018-07-16T14:51:21.887Z,61.20
2018-07-16T14:53:50.737Z,63.00
2018-07-16T14:56:19.535Z,64.20
2018-07-16T14:58:48.499Z,64.40
2018-07-16T15:01:18.287Z,64.60
2018-07-16T15:03:47.356Z,64.50
2018-07-16T15:06:16.477Z,64.30
2018-07-16T15:13:42.232Z,64.50
2018-07-16T15:16:10.951Z,63.80
2018-07-16T15:18:39.772Z,64.20
2018-07-16T15:21:08.799Z,62.90
2018-07-16T15:23:38.252Z,62.50
2018-07-16T15:26:07.325Z,59.80
2018-07-16T15:28:36.460Z,60.70
2018-07-16T15:31:05.529Z,61.20
2018-07-16T15:33:35.340Z,60.50
2018-07-16T15:36:04.390Z,60.30
2018-07-16T15:38:33.258Z,60.00
2018-07-16T15:41:02.099Z,59.40
2018-07-16T15:43:31.197Z,58.30
2018-07-16T15:45:59.990Z,58.20
2018-07-16T15:48:29.032Z,57.80
2018-07-16T15:50:57.863Z,57.70
2018-07-16T15:53:26.749Z,57.70
2018-07-16T15:55:55.541Z,58.00
2018-07-16T16:00:52.948Z,59.10
2018-07-16T16:03:21.791Z,59.20
2018-07-16T16:05:50.743Z,59.20
2018-07-16T16:08:20.436Z,59.70
2018-07-16T16:10:49.214Z,60.00
2018-07-16T16:13:18.024Z,59.60
2018-07-16T16:15:47.000Z,59.80
2018-07-16T16:18:15.829Z,59.50
2018-07-16T16:20:44.686Z,60.50
2018-07-16T16:23:13.757Z,61.20
2018-07-16T16:25:42.595Z,61.50
2018-07-16T16:28:11.583Z,61.40
2018-07-16T16:30:40.398Z,62.50
2018-07-16T16:33:09.220Z,61.70
2018-07-16T16:35:38.027Z,62.50
2018-07-16T16:38:08.082Z,61.60
2018-07-16T16:40:37.515Z,61.70
2018-07-16T16:43:22.322Z,61.90
2018-07-16T16:45:55.879Z,61.50
2018-07-16T16:48:32.243Z,61.60
2018-07-16T16:51:01.112Z,61.20
2018-07-16T16:53:37.977Z,61.60
2018-07-16T16:56:07.449Z,61.00
2018-07-16T16:58:52.655Z,61.30
2018-07-16T17:01:21.444Z,61.60
2018-07-16T17:03:50.354Z,61.40
2018-07-16T17:06:19.202Z,61.40
2018-07-16T17:08:47.968Z,61.60
2018-07-16T17:11:20.001Z,61.10
2018-07-16T17:13:49.761Z,60.00
2018-07-16T17:16:19.281Z,59.20
2018-07-16T17:18:48.637Z,57.50
2018-07-16T17:21:22.472Z,56.60
2018-07-16T17:23:57.903Z,55.80
2018-07-16T17:26:27.296Z,54.10
2018-07-16T17:28:56.135Z,53.20
2018-07-16T17:31:24.815Z,52.70
2018-07-16T17:33:58.074Z,52.00
2018-07-16T17:36:29.299Z,51.40
2018-07-16T17:38:58.052Z,50.90
2018-07-16T17:41:26.872Z,51.40
2018-07-16T17:43:55.671Z,52.30
2018-07-16T17:46:24.368Z,52.20
2018-07-16T17:48:53.386Z,52.40
2018-07-16T17:51:22.112Z,52.60
2018-07-16T17:53:50.934Z,53.30
2018-07-16T17:56:20.033Z,53.70
2018-07-16T17:58:48.798Z,54.30
2018-07-16T18:01:20.163Z,54.20
2018-07-16T18:03:48.996Z,54.20
2018-07-16T18:06:18.018Z,53.90
2018-07-16T18:08:46.758Z,53.50
2018-07-16T18:11:16.190Z,53.70
2018-07-16T18:13:45.161Z,54.30
2018-07-16T18:16:30.781Z,55.30
2018-07-16T18:18:59.671Z,57.20
2018-07-16T18:21:28.369Z,57.80
2018-07-16T18:23:57.238Z,58.90
2018-07-16T18:26:25.971Z,59.80
2018-07-16T18:28:54.835Z,61.00
2018-07-16T18:31:24.637Z,62.40
2018-07-16T18:33:53.336Z,62.90
2018-07-16T18:36:22.306Z,64.10
2018-07-16T18:38:51.123Z,64.70
2018-07-16T18:41:20.500Z,65.80
2018-07-16T18:43:49.382Z,66.30
2018-07-16T18:46:18.082Z,66.50
2018-07-16T18:48:48.247Z,67.10
2018-07-16T18:51:18.081Z,67.40
2018-07-16T18:53:46.721Z,68.10
2018-07-16T18:56:15.515Z,68.60
2018-07-16T18:58:44.228Z,69.40
2018-07-16T19:01:13.049Z,69.50
2018-07-16T19:03:42.033Z,70.50
2018-07-16T19:06:10.933Z,70.90
2018-07-16T19:08:39.759Z,71.00
2018-07-16T19:11:08.612Z,71.20
2018-07-16T19:13:37.421Z,71.50
2018-07-16T19:16:06.283Z,72.30
2018-07-16T19:18:35.071Z,72.60
2018-07-16T19:21:04.020Z,72.60
2018-07-16T19:23:33.136Z,72.90
2018-07-16T19:26:03.005Z,73.30
2018-07-16T19:28:32.314Z,73.80
2018-07-16T19:31:00.993Z,74.00
2018-07-16T19:33:29.710Z,74.30
2018-07-16T19:35:58.347Z,74.60
2018-07-16T19:38:27.214Z,75.30
2018-07-16T19:40:55.976Z,75.80
2018-07-16T19:43:24.734Z,76.10
2018-07-16T19:45:53.529Z,76.50
2018-07-16T19:48:22.377Z,76.60
2018-07-16T19:50:51.278Z,76.90
2018-07-16T19:53:20.024Z,77.20
2018-07-16T19:55:48.781Z,77.50
2018-07-16T19:58:18.224Z,77.90
2018-07-16T20:00:47.099Z,77.80
2018-07-16T20:03:15.988Z,78.40
2018-07-16T20:05:45.775Z,78.40
2018-07-16T20:08:14.757Z,78.60
2018-07-16T20:10:43.552Z,79.10
2018-07-16T20:13:12.550Z,79.10
2018-07-16T20:15:41.830Z,79.20
2018-07-16T20:20:53.882Z,80.10
2018-07-16T20:23:23.114Z,80.30
2018-07-16T20:25:53.664Z,80.40
2018-07-16T20:28:22.568Z,80.70
2018-07-16T20:30:53.498Z,80.90
2018-07-16T20:33:22.478Z,81.40
2018-07-16T20:35:52.040Z,81.70
2018-07-16T20:38:21.173Z,81.90
2018-07-16T20:40:50.048Z,82.00
2018-07-16T20:43:18.880Z,82.50
2018-07-16T20:45:47.684Z,83.20
2018-07-16T20:48:17.289Z,83.50
2018-07-16T20:50:46.186Z,83.80
2018-07-16T20:53:14.864Z,83.80
2018-07-16T20:55:43.716Z,84.30
2018-07-16T20:58:12.412Z,85.10
2018-07-16T21:00:46.500Z,85.40
2018-07-16T21:03:15.601Z,85.60
2018-07-16T21:05:44.533Z,85.80
2018-07-16T21:08:13.628Z,86.50
2018-07-16T21:10:44.309Z,86.40
2018-07-16T21:13:13.239Z,86.80
2018-07-16T21:15:43.030Z,87.40
2018-07-16T21:18:12.030Z,87.60
2018-07-16T21:20:40.767Z,87.70
2018-07-16T21:23:09.680Z,87.50
2018-07-16T21:25:38.369Z,87.80
2018-07-16T21:28:07.104Z,88.60
2018-07-16T21:30:35.818Z,88.70
2018-07-16T21:33:04.604Z,89.00
2018-07-16T21:38:07.791Z,89.30
2018-07-16T21:40:37.194Z,89.40
2018-07-16T21:43:06.128Z,90.00
2018-07-16T21:45:39.969Z,90.20
2018-07-16T21:48:08.961Z,90.10
2018-07-16T21:50:38.679Z,90.40
2018-07-16T21:53:07.403Z,90.50
2018-07-16T21:55:36.081Z,90.50
2018-07-16T21:58:05.214Z,90.50
2018-07-16T22:00:33.979Z,90.50
2018-07-16T22:03:02.762Z,90.70
2018-07-16T22:05:31.448Z,90.70
2018-07-16T22:08:01.038Z,90.70
2018-07-16T22:10:29.873Z,90.80
2018-07-16T22:13:01.864Z,90.80
2018-07-16T22:15:31.445Z,91.00
2018-07-16T22:18:01.692Z,90.90
2018-07-16T22:20:30.713Z,91.30
2018-07-16T22:23:00.107Z,91.10
2018-07-16T22:25:28.980Z,91.10
2018-07-16T22:27:57.657Z,91.20
2018-07-16T22:30:26.471Z,91.40
2018-07-16T22:32:55.443Z,91.30
2018-07-16T22:35:24.428Z,91.40
2018-07-16T22:37:53.104Z,91.60
2018-07-16T22:40:22.715Z,91.80
2018-07-16T22:42:51.462Z,92.00
2018-07-16T22:45:21.603Z,92.10
2018-07-16T22:47:50.338Z,92.10
2018-07-16T22:50:20.028Z,92.20
2018-07-16T22:52:48.589Z,92.30
2018-07-16T22:55:17.356Z,92.40
2018-07-16T22:57:47.233Z,92.40
2018-07-16T23:00:16.084Z,92.50
2018-07-16T23:02:44.833Z,92.80
2018-07-16T23:05:13.674Z,93.10
2018-07-16T23:07:42.422Z,93.00
2018-07-16T23:10:11.072Z,93.00
2018-07-16T23:15:08.075Z,93.70
2018-07-16T23:17:36.695Z,93.50
2018-07-16T23:20:05.381Z,94.00
2018-07-16T23:22:44.136Z,93.70
2018-07-16T23:25:12.838Z,93.80
2018-07-16T23:27:41.608Z,94.00
2018-07-16T23:30:10.257Z,94.20
2018-07-16T23:32:38.946Z,94.60
2018-07-16T23:35:07.706Z,94.70
2018-07-16T23:37:38.725Z,94.60
2018-07-16T23:40:07.492Z,94.70
2018-07-16T23:42:36.184Z,95.00
2018-07-16T23:45:05.233Z,94.90
2018-07-16T23:47:34.027Z,95.00
2018-07-16T23:50:02.737Z,95.10
2018-07-16T23:52:32.110Z,95.20
2018-07-16T23:55:00.982Z,95.60
2018-07-16T23:57:30.052Z,95.40
2018-07-16T23:59:58.776Z,95.30
